Mount Meridian, Indiana
Current Conditions -  °F | °C
As of 5:35 PM on Sunday 23 Nov 2014 (Local Time) from K4I7 Reporting Station
Light Rain Light Rain  
Wind Chill: 52°   Ceiling: 700
Heat Index: 52°   Visibility: 4mi
Dew Point: 50°   Wind: 8mph
Humidity: 94%   Direction: 130°SE
Pressure: 29.44"   Gusts: NA
Location:  39.6767°N, 86.9214°W
Report Text: K4I7 232235Z AUTO 13007KT 4SM -RA BKN007 OVC011 11/10 A2944 RMK AO2 P0005
Loading
Personal Weather Stations






























Interactive Weather Map New forecast layout! Learn more

10-Day Weather Forecast

Advertisements
Track Severe Weather on mobile